Medicine Lake Lodge, California
Current Conditions -  °F | °C
As of 2:30 AM on Friday 24 Oct 2014 (Local Time) from KLMT Reporting Station
Light Rain Light Rain  
Wind Chill: 43°   Ceiling: 3200
Heat Index: 43°   Visibility: 10mi
Dew Point: 42°   Wind: 0mph
Humidity: 97%   Direction: NA
Pressure: 30.06"   Gusts: NA
Location:  41.7207°N, 121.463°W
Report Text: KLMT 240930Z AUTO 00000KT 10SM -RA SCT020 SCT025 OVC032 06/06 A3006 RMK AO2 P0003 T00610056
Loading
Personal Weather Stations






























Interactive Weather Map
Tropical Storm Tracking
New forecast layout! Learn more

10-Day Weather Forecast

Advertisements
Track Severe Weather on mobile